createdAt,value
2022-09-07T00:01:09.961Z,11.30
2022-09-07T00:03:38.076Z,12.47
2022-09-07T00:06:09.525Z,15.70
2022-09-07T00:08:39.060Z,12.07
2022-09-07T00:11:11.552Z,11.48
2022-09-07T00:13:41.291Z,11.45
2022-09-07T00:16:16.173Z,12.40
2022-09-07T00:18:46.208Z,12.90
2022-09-07T00:21:16.592Z,11.25
2022-09-07T00:23:45.587Z,13.15
2022-09-07T00:26:18.924Z,15.90
2022-09-07T00:28:47.196Z,17.23
2022-09-07T00:31:21.043Z,15.93
2022-09-07T00:33:50.733Z,15.27
2022-09-07T00:36:20.078Z,13.13
2022-09-07T00:38:48.296Z,14.07
2022-09-07T00:41:17.113Z,12.23
2022-09-07T00:43:54.677Z,13.65
2022-09-07T00:46:26.486Z,13.05
2022-09-07T00:49:08.592Z,12.23
2022-09-07T00:51:58.256Z,14.52
2022-09-07T00:54:46.982Z,14.00
2022-09-07T00:57:16.035Z,8.98
2022-09-07T00:59:48.460Z,11.63
2022-09-07T01:02:18.489Z,9.15
2022-09-07T01:04:54.385Z,8.80
2022-09-07T01:07:22.567Z,11.70
2022-09-07T01:09:51.272Z,10.23
2022-09-07T01:12:19.126Z,7.32
2022-09-07T01:14:51.329Z,11.32
2022-09-07T01:17:48.161Z,12.70
2022-09-07T01:20:44.466Z,9.33
2022-09-07T01:23:30.634Z,9.25
2022-09-07T01:26:30.253Z,10.20
2022-09-07T01:29:20.351Z,9.13
2022-09-07T01:32:03.001Z,11.52
2022-09-07T01:34:32.578Z,9.50
2022-09-07T01:37:32.534Z,9.65
2022-09-07T01:40:16.661Z,7.75
2022-09-07T01:43:01.046Z,8.02
2022-09-07T01:45:33.508Z,8.77
2022-09-07T01:48:06.701Z,9.87
2022-09-07T01:50:56.061Z,7.47
2022-09-07T01:53:31.432Z,7.53
2022-09-07T01:56:12.622Z,8.05
2022-09-07T01:58:57.130Z,11.38
2022-09-07T02:01:40.877Z,10.13
2022-09-07T02:04:17.695Z,7.75
2022-09-07T02:06:50.066Z,10.57
2022-09-07T02:09:29.766Z,10.13
2022-09-07T02:12:03.516Z,11.70
2022-09-07T02:14:39.871Z,11.03
2022-09-07T02:17:07.699Z,11.50
2022-09-07T02:20:00.379Z,9.40
2022-09-07T02:22:33.653Z,9.43
2022-09-07T02:25:04.976Z,9.93
2022-09-07T02:27:49.222Z,7.17
2022-09-07T02:30:18.200Z,11.70
2022-09-07T02:32:47.160Z,10.23
2022-09-07T02:35:15.802Z,9.70
2022-09-07T02:37:45.833Z,12.63
2022-09-07T02:40:15.124Z,11.50
2022-09-07T02:42:43.916Z,8.98
2022-09-07T02:45:14.266Z,13.25
2022-09-07T02:47:48.991Z,8.73
2022-09-07T02:50:40.601Z,10.85
2022-09-07T02:53:34.731Z,9.67
2022-09-07T02:56:13.195Z,7.57
2022-09-07T02:58:57.340Z,7.63
2022-09-07T03:01:43.958Z,9.90
2022-09-07T03:04:26.408Z,11.18
2022-09-07T03:07:21.188Z,10.40
2022-09-07T03:09:53.905Z,12.23
2022-09-07T03:12:22.318Z,10.15
2022-09-07T03:14:50.300Z,9.88
2022-09-07T03:17:18.462Z,7.53
2022-09-07T03:19:46.375Z,8.40
2022-09-07T03:22:14.446Z,8.55
2022-09-07T03:24:44.042Z,12.07
2022-09-07T03:27:12.168Z,10.75
2022-09-07T03:29:42.127Z,10.50
2022-09-07T03:32:10.626Z,14.33
2022-09-07T03:34:38.612Z,12.13
2022-09-07T03:37:06.569Z,13.23
2022-09-07T03:39:37.824Z,15.90
2022-09-07T03:42:06.136Z,12.70
2022-09-07T03:44:34.034Z,10.17
2022-09-07T03:47:02.279Z,16.25
2022-09-07T03:49:30.497Z,17.23
2022-09-07T03:51:58.597Z,13.20
2022-09-07T03:54:27.369Z,14.48
2022-09-07T03:56:55.439Z,16.87
2022-09-07T03:59:23.468Z,14.02
2022-09-07T04:01:51.653Z,16.17
2022-09-07T04:04:19.711Z,14.80
2022-09-07T04:06:48.355Z,16.50
2022-09-07T04:09:16.560Z,14.40
2022-09-07T04:11:44.677Z,18.88
2022-09-07T04:14:13.156Z,16.60
2022-09-07T04:16:41.695Z,14.18
2022-09-07T04:19:09.845Z,19.00
2022-09-07T04:21:37.899Z,13.10
2022-09-07T04:24:06.026Z,13.82
2022-09-07T04:26:35.939Z,12.80
2022-09-07T04:29:05.827Z,12.63
2022-09-07T04:31:35.895Z,9.63
2022-09-07T04:34:05.318Z,12.87
2022-09-07T04:36:34.129Z,11.90
2022-09-07T04:39:05.206Z,9.27
2022-09-07T04:41:35.303Z,10.88
2022-09-07T04:44:04.627Z,9.10
2022-09-07T04:46:35.774Z,12.10
2022-09-07T04:49:07.341Z,11.60
2022-09-07T04:51:36.180Z,14.52
2022-09-07T04:54:04.362Z,16.45
2022-09-07T04:56:33.391Z,11.15
2022-09-07T04:59:04.693Z,10.17
2022-09-07T05:01:32.705Z,15.63
2022-09-07T05:04:02.072Z,10.90
2022-09-07T05:06:30.251Z,21.95
2022-09-07T05:08:59.294Z,13.85
2022-09-07T05:11:29.786Z,12.77
2022-09-07T05:14:03.058Z,13.85
2022-09-07T05:16:32.389Z,13.07
2022-09-07T05:19:03.000Z,15.75
2022-09-07T05:21:33.739Z,11.73
2022-09-07T05:24:03.246Z,15.30
2022-09-07T05:26:35.086Z,14.77
2022-09-07T05:31:55.308Z,14.60
2022-09-07T05:34:31.371Z,13.77
2022-09-07T05:37:01.743Z,13.57
2022-09-07T05:39:29.713Z,13.10
2022-09-07T05:41:57.951Z,11.85
2022-09-07T05:47:14.677Z,13.98
2022-09-07T05:49:43.137Z,13.80
2022-09-07T05:52:12.292Z,14.65
2022-09-07T05:54:40.569Z,17.20
2022-09-07T05:57:11.234Z,23.45
2022-09-07T05:59:39.506Z,35.47
2022-09-07T06:02:08.235Z,43.33
2022-09-07T06:04:36.465Z,25.00
2022-09-07T06:07:21.093Z,22.70
2022-09-07T06:12:41.167Z,21.98
2022-09-07T06:15:12.142Z,10.40
2022-09-07T06:17:40.542Z,12.05
2022-09-07T06:20:09.771Z,16.83
2022-09-07T06:22:38.715Z,16.25
2022-09-07T06:25:07.050Z,14.35
2022-09-07T06:27:35.096Z,13.00
2022-09-07T06:30:03.450Z,13.63
2022-09-07T06:32:46.828Z,14.90
2022-09-07T06:35:15.533Z,16.88
2022-09-07T06:37:43.799Z,23.58
2022-09-07T06:40:12.478Z,31.10
2022-09-07T06:42:40.635Z,17.13
2022-09-07T06:45:11.816Z,11.98
2022-09-07T06:47:40.644Z,13.18
2022-09-07T06:50:09.421Z,19.35
2022-09-07T06:55:28.259Z,12.02
2022-09-07T06:57:56.307Z,11.88
2022-09-07T07:00:24.638Z,11.38
2022-09-07T07:02:52.716Z,11.55
2022-09-07T07:05:20.725Z,16.60
2022-09-07T07:07:48.680Z,10.27
2022-09-07T07:10:19.715Z,15.38
2022-09-07T07:12:50.614Z,11.27
2022-09-07T07:15:18.600Z,13.90
2022-09-07T07:17:50.327Z,14.30
2022-09-07T07:20:24.692Z,13.65
2022-09-07T07:22:53.396Z,15.73
2022-09-07T07:25:21.880Z,13.55
2022-09-07T07:27:50.979Z,14.73
2022-09-07T07:30:20.183Z,13.93
2022-09-07T07:32:49.555Z,12.15
2022-09-07T07:35:18.124Z,17.75
2022-09-07T07:37:47.106Z,18.77
2022-09-07T07:40:17.772Z,13.13
2022-09-07T07:42:48.687Z,11.63
2022-09-07T07:48:07.703Z,11.43
2022-09-07T07:50:35.833Z,10.18
2022-09-07T07:55:52.542Z,10.87
2022-09-07T07:58:21.127Z,9.82
2022-09-07T08:00:57.099Z,12.05
2022-09-07T08:03:26.480Z,13.43
2022-09-07T08:05:55.886Z,12.45
2022-09-07T08:08:25.028Z,12.83
2022-09-07T08:10:53.405Z,11.30
2022-09-07T08:13:21.788Z,12.07
2022-09-07T08:15:49.872Z,11.25
2022-09-07T08:18:20.592Z,11.48
2022-09-07T08:20:48.669Z,15.70
2022-09-07T08:23:16.667Z,9.55
2022-09-07T08:25:55.219Z,8.95
2022-09-07T08:28:24.007Z,13.65
2022-09-07T08:30:52.474Z,10.85
2022-09-07T08:33:22.310Z,13.67
2022-09-07T08:35:58.151Z,11.18
2022-09-07T08:38:27.559Z,11.50
2022-09-07T08:40:55.657Z,16.25
2022-09-07T08:43:53.491Z,13.52
2022-09-07T08:46:32.576Z,11.77
2022-09-07T08:49:03.746Z,17.50
2022-09-07T08:51:42.397Z,10.93
2022-09-07T08:54:15.491Z,12.15
2022-09-07T09:00:08.953Z,11.97
2022-09-07T09:02:43.492Z,10.77
2022-09-07T09:05:30.676Z,11.38
2022-09-07T09:08:21.585Z,10.77
2022-09-07T09:11:16.085Z,13.05
2022-09-07T09:13:55.964Z,11.20
2022-09-07T09:16:23.995Z,10.38
2022-09-07T09:19:06.789Z,7.30
2022-09-07T09:21:36.099Z,8.80
2022-09-07T09:24:17.682Z,7.72
2022-09-07T09:26:52.255Z,9.53
2022-09-07T09:29:22.641Z,8.52
2022-09-07T09:31:50.672Z,11.68
2022-09-07T09:34:23.864Z,9.68
2022-09-07T09:36:56.010Z,10.60
2022-09-07T09:39:35.064Z,10.33
2022-09-07T09:42:16.745Z,8.95
2022-09-07T09:44:46.029Z,9.88
2022-09-07T09:47:33.922Z,9.02
2022-09-07T09:50:08.211Z,9.00
2022-09-07T09:52:47.704Z,11.90
2022-09-07T09:55:36.059Z,11.52
2022-09-07T10:01:24.059Z,11.52
2022-09-07T10:06:26.003Z,8.47
2022-09-07T10:09:02.491Z,11.38
2022-09-07T10:14:44.411Z,10.75
2022-09-07T10:17:20.349Z,7.22
2022-09-07T10:19:49.917Z,10.20
2022-09-07T10:22:39.175Z,7.88
2022-09-07T10:25:31.010Z,8.00
2022-09-07T10:28:15.932Z,11.85
2022-09-07T10:30:55.878Z,9.40
2022-09-07T10:33:35.166Z,10.40
2022-09-07T10:36:23.806Z,8.70
2022-09-07T10:39:01.976Z,7.40
2022-09-07T10:42:07.787Z,10.25
2022-09-07T10:44:50.510Z,8.95
2022-09-07T10:47:37.076Z,8.13
2022-09-07T10:50:27.169Z,11.57
2022-09-07T10:53:39.498Z,8.88
2022-09-07T10:56:15.332Z,8.38
2022-09-07T10:59:06.477Z,9.95
2022-09-07T11:01:43.294Z,10.30
2022-09-07T11:04:29.191Z,7.50
2022-09-07T11:07:19.707Z,9.02
2022-09-07T11:10:06.439Z,7.70
2022-09-07T11:12:39.690Z,11.48
2022-09-07T11:15:13.582Z,12.93
2022-09-07T11:17:53.483Z,7.50
2022-09-07T11:20:39.820Z,11.73
2022-09-07T11:23:15.906Z,7.47
2022-09-07T11:26:22.512Z,8.80
2022-09-07T11:31:59.175Z,9.05
2022-09-07T11:35:13.784Z,10.45
2022-09-07T11:37:55.809Z,8.70
2022-09-07T11:40:28.251Z,7.00
2022-09-07T11:43:33.777Z,8.40
2022-09-07T11:46:16.838Z,10.05
2022-09-07T11:48:58.296Z,8.32
2022-09-07T11:51:54.070Z,11.13
2022-09-07T11:54:32.368Z,8.00
2022-09-07T11:57:15.692Z,5.77
2022-09-07T12:00:12.581Z,8.95
2022-09-07T12:03:02.570Z,7.20
2022-09-07T12:06:22.954Z,8.35
2022-09-07T12:09:03.306Z,6.22
2022-09-07T12:12:08.465Z,7.43
2022-09-07T12:14:48.458Z,6.85
2022-09-07T12:17:37.612Z,8.68
2022-09-07T12:20:18.406Z,6.10
2022-09-07T12:23:05.582Z,7.65
2022-09-07T12:25:36.046Z,10.20
2022-09-07T12:28:04.566Z,6.93
2022-09-07T12:30:50.400Z,9.30
2022-09-07T12:33:29.179Z,7.30
2022-09-07T12:35:59.541Z,9.05
2022-09-07T12:38:34.340Z,7.77
2022-09-07T12:41:05.563Z,8.18
2022-09-07T12:44:06.065Z,6.90
2022-09-07T12:46:35.041Z,8.60
2022-09-07T12:49:34.146Z,8.35
2022-09-07T12:52:20.883Z,10.03
2022-09-07T12:55:28.046Z,8.05
2022-09-07T12:58:31.073Z,8.40
2022-09-07T13:01:19.820Z,6.18
2022-09-07T13:04:17.692Z,7.70
2022-09-07T13:07:03.537Z,7.93
2022-09-07T13:09:32.027Z,8.95
2022-09-07T13:12:01.589Z,6.75
2022-09-07T13:14:30.346Z,5.70
2022-09-07T13:17:35.543Z,7.35
2022-09-07T13:20:06.646Z,9.90
2022-09-07T13:22:35.127Z,7.28
2022-09-07T13:25:24.535Z,6.38
2022-09-07T13:28:02.281Z,9.15
2022-09-07T13:30:38.918Z,7.03
2022-09-07T13:33:25.243Z,7.10
2022-09-07T13:36:01.959Z,8.38
2022-09-07T13:38:32.305Z,8.18
2022-09-07T13:41:23.061Z,7.75
2022-09-07T13:43:54.041Z,7.45
2022-09-07T13:46:57.600Z,7.27
2022-09-07T13:49:43.472Z,8.82
2022-09-07T13:52:41.691Z,11.32
2022-09-07T13:55:26.643Z,8.32
2022-09-07T13:58:20.313Z,9.45
2022-09-07T14:01:02.742Z,8.13
2022-09-07T14:03:49.401Z,9.13
2022-09-07T14:06:23.122Z,10.50
2022-09-07T14:09:16.184Z,8.77
2022-09-07T14:11:50.021Z,10.10
2022-09-07T14:14:27.013Z,10.63
2022-09-07T14:17:05.159Z,10.32
2022-09-07T14:19:42.210Z,9.23
2022-09-07T14:22:22.244Z,8.40
2022-09-07T14:24:58.550Z,8.73
2022-09-07T14:27:44.326Z,11.17
2022-09-07T14:30:36.021Z,11.85
2022-09-07T14:33:18.067Z,10.93
2022-09-07T14:35:46.993Z,14.82
2022-09-07T14:41:17.458Z,11.37
2022-09-07T14:44:00.651Z,10.70
2022-09-07T14:46:34.641Z,10.73
2022-09-07T14:49:07.818Z,7.80
2022-09-07T14:51:37.179Z,12.60
2022-09-07T14:54:07.943Z,13.10
2022-09-07T14:56:40.750Z,10.63
2022-09-07T14:59:40.266Z,12.10
2022-09-07T15:02:22.640Z,12.82
2022-09-07T15:05:10.540Z,10.00
2022-09-07T15:07:46.793Z,11.70
2022-09-07T15:10:23.979Z,11.35
2022-09-07T15:12:55.601Z,10.63
2022-09-07T15:15:31.310Z,10.35
2022-09-07T15:18:07.502Z,9.98
2022-09-07T15:20:40.738Z,12.87
2022-09-07T15:23:12.741Z,12.52
2022-09-07T15:25:46.531Z,11.73
2022-09-07T15:34:10.654Z,12.43
2022-09-07T15:36:42.974Z,11.35
2022-09-07T15:39:21.721Z,12.35
2022-09-07T15:41:51.621Z,11.52
2022-09-07T15:44:24.995Z,9.90
2022-09-07T15:49:47.698Z,12.88
2022-09-07T15:52:22.098Z,10.43
2022-09-07T15:54:50.180Z,12.52
2022-09-07T16:00:07.837Z,10.20
2022-09-07T16:05:36.803Z,10.57
2022-09-07T16:10:55.146Z,14.10
2022-09-07T16:13:24.654Z,12.10
2022-09-07T16:15:52.644Z,12.68
2022-09-07T16:18:20.965Z,7.50
2022-09-07T16:20:52.734Z,13.20
2022-09-07T16:23:21.373Z,11.88
2022-09-07T16:25:57.521Z,10.13
2022-09-07T16:28:27.282Z,10.10
2022-09-07T16:30:57.176Z,11.88
2022-09-07T16:33:33.146Z,12.50
2022-09-07T16:36:09.390Z,13.25
2022-09-07T16:38:46.011Z,13.80
2022-09-07T16:41:23.758Z,11.95
2022-09-07T16:43:52.283Z,12.25
2022-09-07T16:46:22.256Z,12.65
2022-09-07T16:48:51.886Z,15.23
2022-09-07T16:51:22.324Z,12.23
2022-09-07T16:53:56.297Z,10.20
2022-09-07T16:56:27.012Z,13.05
2022-09-07T16:59:04.087Z,14.93
2022-09-07T17:01:35.261Z,14.07
2022-09-07T17:04:09.638Z,15.47
2022-09-07T17:06:41.025Z,13.70
2022-09-07T17:09:09.605Z,14.00
2022-09-07T17:11:37.922Z,14.05
2022-09-07T17:14:06.996Z,11.98
2022-09-07T17:16:37.883Z,12.83
2022-09-07T17:21:59.090Z,14.52
2022-09-07T17:24:27.028Z,16.35
2022-09-07T17:26:55.233Z,13.10
2022-09-07T17:29:23.544Z,16.97
2022-09-07T17:34:40.335Z,15.18
2022-09-07T17:37:09.252Z,10.95
2022-09-07T17:39:39.248Z,13.88
2022-09-07T17:42:09.742Z,15.33
2022-09-07T17:44:38.584Z,15.82
2022-09-07T17:47:07.032Z,18.08
2022-09-07T17:49:35.702Z,16.98
2022-09-07T17:52:04.210Z,11.15
2022-09-07T17:54:33.557Z,16.30
2022-09-07T17:57:01.794Z,22.15
2022-09-07T18:02:18.338Z,16.77
2022-09-07T18:04:46.446Z,18.40
2022-09-07T18:07:15.592Z,16.80
2022-09-07T18:09:43.935Z,17.92
2022-09-07T18:12:12.164Z,20.90
2022-09-07T18:14:40.239Z,20.00
2022-09-07T18:17:08.629Z,21.33
2022-09-07T18:19:38.405Z,19.60
2022-09-07T18:22:07.161Z,18.15
2022-09-07T18:24:36.948Z,17.15
2022-09-07T18:27:06.391Z,20.75
2022-09-07T18:29:34.926Z,16.08
2022-09-07T18:32:08.464Z,17.50
2022-09-07T18:34:41.424Z,20.48
2022-09-07T18:37:12.650Z,17.20
2022-09-07T18:39:41.178Z,16.10
2022-09-07T18:42:10.629Z,17.02
2022-09-07T18:47:29.211Z,16.38
2022-09-07T18:49:58.297Z,17.35
2022-09-07T18:55:15.398Z,20.60
2022-09-07T18:57:43.377Z,17.53
2022-09-07T19:00:12.782Z,23.42
2022-09-07T19:02:41.075Z,22.65
2022-09-07T19:07:58.040Z,21.88
2022-09-07T19:10:29.023Z,18.70
2022-09-07T19:12:57.584Z,17.92
2022-09-07T19:15:25.807Z,22.27
2022-09-07T19:17:54.158Z,14.65
2022-09-07T19:20:22.205Z,18.35
2022-09-07T19:22:50.412Z,13.97
2022-09-07T19:25:22.864Z,19.15
2022-09-07T19:27:51.044Z,17.33
2022-09-07T19:30:19.128Z,17.40
2022-09-07T19:32:47.722Z,15.93
2022-09-07T19:35:18.453Z,16.43
2022-09-07T19:37:48.566Z,17.17
2022-09-07T19:40:19.559Z,14.93
2022-09-07T19:42:48.080Z,14.88
2022-09-07T19:45:19.164Z,18.42
2022-09-07T19:47:49.649Z,12.43
2022-09-07T19:50:20.020Z,17.60
2022-09-07T19:52:48.598Z,17.30
2022-09-07T19:55:17.238Z,18.02
2022-09-07T19:57:51.107Z,18.75
2022-09-07T20:00:19.224Z,16.77
2022-09-07T20:02:50.347Z,19.88
2022-09-07T20:05:19.112Z,17.85
2022-09-07T20:07:47.215Z,18.88
2022-09-07T20:10:15.539Z,16.17
2022-09-07T20:12:43.637Z,15.97
2022-09-07T20:15:12.446Z,18.02
2022-09-07T20:17:40.584Z,15.70
2022-09-07T20:20:09.120Z,16.45
2022-09-07T20:22:37.040Z,16.65
2022-09-07T20:25:05.505Z,18.37
2022-09-07T20:27:36.351Z,18.98
2022-09-07T20:30:06.230Z,21.45
2022-09-07T20:32:35.140Z,16.88
2022-09-07T20:35:03.219Z,16.88
2022-09-07T20:37:31.559Z,20.70
2022-09-07T20:39:59.675Z,18.98
2022-09-07T20:42:28.862Z,24.20
2022-09-07T20:45:00.132Z,22.27
2022-09-07T20:47:29.356Z,21.45
2022-09-07T20:49:59.410Z,22.83
2022-09-07T20:52:27.876Z,21.93
2022-09-07T20:54:55.634Z,16.63
2022-09-07T20:57:23.727Z,19.15
2022-09-07T20:59:51.903Z,19.05
2022-09-07T21:02:20.085Z,20.05
2022-09-07T21:04:48.183Z,16.00
2022-09-07T21:07:16.298Z,15.65
2022-09-07T21:09:44.952Z,18.58
2022-09-07T21:12:13.224Z,12.85
2022-09-07T21:14:41.519Z,12.30
2022-09-07T21:17:09.688Z,16.97
2022-09-07T21:19:37.688Z,14.05
2022-09-07T21:22:05.877Z,15.90
2022-09-07T21:24:34.067Z,16.35
2022-09-07T21:27:02.295Z,14.95
2022-09-07T21:29:30.659Z,14.33
2022-09-07T21:31:59.083Z,18.77
2022-09-07T21:34:27.229Z,13.73
2022-09-07T21:36:55.305Z,14.27
2022-09-07T21:39:23.321Z,13.45
2022-09-07T21:41:51.646Z,14.63
2022-09-07T21:44:20.977Z,12.35
2022-09-07T21:46:49.467Z,16.63
2022-09-07T21:49:17.652Z,13.38
2022-09-07T21:51:45.969Z,14.15
2022-09-07T21:54:14.081Z,19.07
2022-09-07T21:56:46.558Z,12.20
2022-09-07T21:59:15.313Z,15.77
2022-09-07T22:01:43.224Z,12.88
2022-09-07T22:04:11.388Z,19.20
2022-09-07T22:06:40.559Z,15.70
2022-09-07T22:09:08.766Z,14.27
2022-09-07T22:11:36.830Z,17.63
2022-09-07T22:14:06.290Z,13.88
2022-09-07T22:16:36.005Z,14.63
2022-09-07T22:19:04.594Z,16.47
2022-09-07T22:21:33.284Z,13.50
2022-09-07T22:24:04.357Z,19.08
2022-09-07T22:26:35.729Z,16.70
2022-09-07T22:29:05.388Z,13.75
2022-09-07T22:31:37.134Z,17.50
2022-09-07T22:34:10.258Z,13.65
2022-09-07T22:36:44.097Z,15.00
2022-09-07T22:39:17.783Z,16.90
2022-09-07T22:41:47.737Z,18.15
2022-09-07T22:44:18.558Z,12.30
2022-09-07T22:46:48.076Z,15.15
2022-09-07T22:49:17.429Z,17.17
2022-09-07T22:51:46.259Z,15.90
2022-09-07T22:54:14.649Z,16.30
2022-09-07T22:56:43.058Z,18.23
2022-09-07T22:59:12.607Z,15.13
2022-09-07T23:01:41.008Z,15.93
2022-09-07T23:04:10.786Z,15.27
2022-09-07T23:06:41.368Z,13.40
2022-09-07T23:09:15.395Z,15.95
2022-09-07T23:11:44.651Z,13.18
2022-09-07T23:14:15.978Z,15.82
2022-09-07T23:16:44.789Z,17.07
2022-09-07T23:19:18.173Z,13.93
2022-09-07T23:21:46.788Z,12.90
2022-09-07T23:24:17.167Z,11.32
2022-09-07T23:26:46.549Z,13.65
2022-09-07T23:29:15.859Z,12.93
2022-09-07T23:31:45.851Z,12.20
2022-09-07T23:34:14.188Z,14.20
2022-09-07T23:36:42.255Z,12.38
2022-09-07T23:39:11.009Z,14.63
2022-09-07T23:41:39.284Z,18.27
2022-09-07T23:44:07.568Z,11.27
2022-09-07T23:46:36.226Z,12.55
2022-09-07T23:49:04.536Z,14.17
2022-09-07T23:51:32.609Z,11.27
2022-09-07T23:54:01.478Z,11.25
2022-09-07T23:56:31.416Z,12.40
2022-09-07T23:58:59.631Z,15.40
